sensor_id;sensor_type;location;lat;lon;timestamp;pressure;altitude;pressure_sealevel;temperature;humidity
36254;BME280;22291;52.250;21.228;2022-12-18T00:01:23;101608.91;;;-5.93;87.04
36254;BME280;22291;52.250;21.228;2022-12-18T00:03:47;101614.19;;;-5.93;87.07
36254;BME280;22291;52.250;21.228;2022-12-18T00:06:15;101617.97;;;-5.91;87.02
36254;BME280;22291;52.250;21.228;2022-12-18T00:08:43;101626.70;;;-5.87;87.08
36254;BME280;22291;52.250;21.228;2022-12-18T00:11:17;101624.88;;;-5.86;87.12
36254;BME280;22291;52.250;21.228;2022-12-18T00:13:42;101622.42;;;-5.84;87.11
36254;BME280;22291;52.250;21.228;2022-12-18T00:16:12;101630.97;;;-5.82;87.14
36254;BME280;22291;52.250;21.228;2022-12-18T00:18:41;101626.05;;;-5.80;87.11
36254;BME280;22291;52.250;21.228;2022-12-18T00:21:10;101625.38;;;-5.78;87.11
36254;BME280;22291;52.250;21.228;2022-12-18T00:23:38;101627.84;;;-5.77;87.08
36254;BME280;22291;52.250;21.228;2022-12-18T00:26:09;101637.22;;;-5.74;87.09
36254;BME280;22291;52.250;21.228;2022-12-18T00:28:37;101640.66;;;-5.74;87.13
36254;BME280;22291;52.250;21.228;2022-12-18T00:31:10;101642.66;;;-5.72;87.09
36254;BME280;22291;52.250;21.228;2022-12-18T00:33:35;101648.24;;;-5.71;87.06
36254;BME280;22291;52.250;21.228;2022-12-18T00:36:09;101648.58;;;-5.70;87.07
36254;BME280;22291;52.250;21.228;2022-12-18T00:38:38;101646.45;;;-5.70;87.05
36254;BME280;22291;52.250;21.228;2022-12-18T00:41:07;101658.96;;;-5.68;87.01
36254;BME280;22291;52.250;21.228;2022-12-18T00:43:34;101660.75;;;-5.69;87.01
36254;BME280;22291;52.250;21.228;2022-12-18T00:46:02;101667.86;;;-5.65;87.03
36254;BME280;22291;52.250;21.228;2022-12-18T00:48:29;101666.54;;;-5.65;86.95
36254;BME280;22291;52.250;21.228;2022-12-18T00:50:55;101663.70;;;-5.64;86.93
36254;BME280;22291;52.250;21.228;2022-12-18T00:53:22;101662.73;;;-5.63;86.88
36254;BME280;22291;52.250;21.228;2022-12-18T00:55:48;101669.99;;;-5.65;86.76
36254;BME280;22291;52.250;21.228;2022-12-18T00:58:15;101668.17;;;-5.64;86.76
36254;BME280;22291;52.250;21.228;2022-12-18T01:00:43;101663.55;;;-5.62;86.85
36254;BME280;22291;52.250;21.228;2022-12-18T01:03:14;101669.97;;;-5.60;86.90
36254;BME280;22291;52.250;21.228;2022-12-18T01:05:41;101673.76;;;-5.59;86.94
36254;BME280;22291;52.250;21.228;2022-12-18T01:08:08;101685.45;;;-5.57;86.91
36254;BME280;22291;52.250;21.228;2022-12-18T01:10:34;101684.64;;;-5.58;86.82
36254;BME280;22291;52.250;21.228;2022-12-18T01:13:00;101688.60;;;-5.58;86.75
36254;BME280;22291;52.250;21.228;2022-12-18T01:15:27;101696.51;;;-5.58;86.79
36254;BME280;22291;52.250;21.228;2022-12-18T01:17:53;101689.75;;;-5.56;86.80
36254;BME280;22291;52.250;21.228;2022-12-18T01:20:21;101691.37;;;-5.55;86.83
36254;BME280;22291;52.250;21.228;2022-12-18T01:22:47;101689.75;;;-5.56;86.85
36254;BME280;22291;52.250;21.228;2022-12-18T01:25:13;101692.88;;;-5.53;86.80
36254;BME280;22291;52.250;21.228;2022-12-18T01:27:40;101693.04;;;-5.54;86.69
36254;BME280;22291;52.250;21.228;2022-12-18T01:30:07;101694.36;;;-5.54;86.72
36254;BME280;22291;52.250;21.228;2022-12-18T01:32:35;101700.45;;;-5.54;86.70
36254;BME280;22291;52.250;21.228;2022-12-18T01:35:01;101704.73;;;-5.53;86.75
36254;BME280;22291;52.250;21.228;2022-12-18T01:37:27;101717.76;;;-5.51;86.78
36254;BME280;22291;52.250;21.228;2022-12-18T01:39:53;101719.08;;;-5.51;86.76
36254;BME280;22291;52.250;21.228;2022-12-18T01:42:21;101718.41;;;-5.49;86.83
36254;BME280;22291;52.250;21.228;2022-12-18T01:45:05;101719.56;;;-5.48;86.84
36254;BME280;22291;52.250;21.228;2022-12-18T01:47:56;101726.47;;;-5.47;86.82
36254;BME280;22291;52.250;21.228;2022-12-18T01:50:38;101730.09;;;-5.44;86.90
36254;BME280;22291;52.250;21.228;2022-12-18T01:55:46;101738.50;;;-5.44;86.77
36254;BME280;22291;52.250;21.228;2022-12-18T01:58:19;101739.48;;;-5.45;86.69
36254;BME280;22291;52.250;21.228;2022-12-18T02:00:46;101741.81;;;-5.46;86.72
36254;BME280;22291;52.250;21.228;2022-12-18T02:03:13;101749.73;;;-5.46;86.76
36254;BME280;22291;52.250;21.228;2022-12-18T02:06:07;101755.47;;;-5.47;86.85
36254;BME280;22291;52.250;21.228;2022-12-18T02:08:56;101758.28;;;-5.44;86.95
36254;BME280;22291;52.250;21.228;2022-12-18T02:11:46;101761.58;;;-5.42;87.05
36254;BME280;22291;52.250;21.228;2022-12-18T02:14:43;101759.28;;;-5.41;87.02
36254;BME280;22291;52.250;21.228;2022-12-18T02:17:22;101759.11;;;-5.39;87.05
36254;BME280;22291;52.250;21.228;2022-12-18T02:20:13;101763.22;;;-5.37;87.04
36254;BME280;22291;52.250;21.228;2022-12-18T02:28:40;101783.98;;;-5.34;86.96
36254;BME280;22291;52.250;21.228;2022-12-18T02:31:09;101778.06;;;-5.36;87.01
36254;BME280;22291;52.250;21.228;2022-12-18T02:33:38;101784.80;;;-5.33;87.06
36254;BME280;22291;52.250;21.228;2022-12-18T02:36:07;101782.16;;;-5.33;87.04
36254;BME280;22291;52.250;21.228;2022-12-18T02:38:35;101789.91;;;-5.32;87.04
36254;BME280;22291;52.250;21.228;2022-12-18T02:41:03;101787.61;;;-5.31;87.05
36254;BME280;22291;52.250;21.228;2022-12-18T02:43:30;101783.49;;;-5.29;87.05
36254;BME280;22291;52.250;21.228;2022-12-18T02:45:58;101787.92;;;-5.30;86.98
36254;BME280;22291;52.250;21.228;2022-12-18T02:48:31;101793.20;;;-5.30;86.89
36254;BME280;22291;52.250;21.228;2022-12-18T02:51:28;101800.95;;;-5.28;86.97
36254;BME280;22291;52.250;21.228;2022-12-18T02:54:05;101802.45;;;-5.26;86.96
36254;BME280;22291;52.250;21.228;2022-12-18T02:56:35;101805.73;;;-5.23;86.94
36254;BME280;22291;52.250;21.228;2022-12-18T02:59:29;101807.05;;;-5.23;86.90
36254;BME280;22291;52.250;21.228;2022-12-18T03:02:15;101809.19;;;-5.23;86.81
36254;BME280;22291;52.250;21.228;2022-12-18T03:05:17;101813.81;;;-5.25;86.78
36254;BME280;22291;52.250;21.228;2022-12-18T03:07:38;101830.65;;;-5.26;86.65
36254;BME280;22291;52.250;21.228;2022-12-18T03:10:09;101834.77;;;-5.28;86.66
36254;BME280;22291;52.250;21.228;2022-12-18T03:12:41;101840.52;;;-5.28;86.62
36254;BME280;22291;52.250;21.228;2022-12-18T03:17:59;101847.45;;;-5.27;86.70
36254;BME280;22291;52.250;21.228;2022-12-18T03:20:31;101851.92;;;-5.28;86.53
36254;BME280;22291;52.250;21.228;2022-12-18T03:23:09;101852.89;;;-5.29;86.41
36254;BME280;22291;52.250;21.228;2022-12-18T03:25:40;101846.97;;;-5.31;86.24
36254;BME280;22291;52.250;21.228;2022-12-18T03:28:12;101853.89;;;-5.34;86.03
36254;BME280;22291;52.250;21.228;2022-12-18T03:30:41;101850.59;;;-5.36;85.84
36254;BME280;22291;52.250;21.228;2022-12-18T03:33:18;101860.47;;;-5.42;85.64
36254;BME280;22291;52.250;21.228;2022-12-18T03:35:50;101859.98;;;-5.46;85.59
36254;BME280;22291;52.250;21.228;2022-12-18T03:38:16;101859.83;;;-5.48;85.50
36254;BME280;22291;52.250;21.228;2022-12-18T03:43:40;101870.36;;;-5.52;85.50
36254;BME280;22291;52.250;21.228;2022-12-18T03:46:33;101874.31;;;-5.52;85.63
36254;BME280;22291;52.250;21.228;2022-12-18T03:49:25;101881.57;;;-5.54;85.55
36254;BME280;22291;52.250;21.228;2022-12-18T03:52:06;101886.03;;;-5.55;85.52
36254;BME280;22291;52.250;21.228;2022-12-18T03:54:35;101886.03;;;-5.55;85.51
36254;BME280;22291;52.250;21.228;2022-12-18T03:57:18;101888.83;;;-5.56;85.44
36254;BME280;22291;52.250;21.228;2022-12-18T03:59:35;101885.50;;;-5.58;85.39
36254;BME280;22291;52.250;21.228;2022-12-18T04:02:04;101888.80;;;-5.60;85.30
36254;BME280;22291;52.250;21.228;2022-12-18T04:04:35;101885.17;;;-5.64;85.29
36254;BME280;22291;52.250;21.228;2022-12-18T04:07:04;101887.81;;;-5.68;85.18
36254;BME280;22291;52.250;21.228;2022-12-18T04:09:33;101905.61;;;-5.70;85.09
36254;BME280;22291;52.250;21.228;2022-12-18T04:12:00;101903.63;;;-5.72;84.95
36254;BME280;22291;52.250;21.228;2022-12-18T04:14:26;101908.56;;;-5.77;84.87
36254;BME280;22291;52.250;21.228;2022-12-18T04:16:52;101909.85;;;-5.81;84.87
36254;BME280;22291;52.250;21.228;2022-12-18T04:19:18;101914.15;;;-5.80;84.92
36254;BME280;22291;52.250;21.228;2022-12-18T04:21:44;101916.60;;;-5.83;84.93
36254;BME280;22291;52.250;21.228;2022-12-18T04:24:11;101910.67;;;-5.85;84.90
36254;BME280;22291;52.250;21.228;2022-12-18T04:26:37;101912.96;;;-5.86;84.86
36254;BME280;22291;52.250;21.228;2022-12-18T04:29:04;101916.10;;;-5.86;84.98
36254;BME280;22291;52.250;21.228;2022-12-18T04:31:30;101930.59;;;-5.86;85.01
36254;BME280;22291;52.250;21.228;2022-12-18T04:33:56;101936.88;;;-5.87;84.95
36254;BME280;22291;52.250;21.228;2022-12-18T04:36:23;101943.77;;;-5.90;84.92
36254;BME280;22291;52.250;21.228;2022-12-18T04:38:53;101948.20;;;-5.91;84.96
36254;BME280;22291;52.250;21.228;2022-12-18T04:41:19;101962.22;;;-5.90;84.98
36254;BME280;22291;52.250;21.228;2022-12-18T04:43:45;101965.33;;;-5.91;85.05
36254;BME280;22291;52.250;21.228;2022-12-18T04:46:12;101963.85;;;-5.89;85.01
36254;BME280;22291;52.250;21.228;2022-12-18T04:48:39;101964.52;;;-5.91;85.00
36254;BME280;22291;52.250;21.228;2022-12-18T04:51:06;101965.33;;;-5.91;84.92
36254;BME280;22291;52.250;21.228;2022-12-18T04:53:33;101968.46;;;-5.91;84.94
36254;BME280;22291;52.250;21.228;2022-12-18T04:56:08;101972.92;;;-5.92;85.00
36254;BME280;22291;52.250;21.228;2022-12-18T04:58:37;101977.53;;;-5.94;85.06
36254;BME280;22291;52.250;21.228;2022-12-18T05:01:05;101980.83;;;-5.92;85.00
36254;BME280;22291;52.250;21.228;2022-12-18T05:03:34;101974.23;;;-5.92;84.96
36254;BME280;22291;52.250;21.228;2022-12-18T05:06:01;101978.00;;;-5.94;84.92
36254;BME280;22291;52.250;21.228;2022-12-18T05:08:27;101980.16;;;-5.94;84.97
36254;BME280;22291;52.250;21.228;2022-12-18T05:11:01;101981.95;;;-5.94;85.02
36254;BME280;22291;52.250;21.228;2022-12-18T05:13:30;101985.75;;;-5.93;85.04
36254;BME280;22291;52.250;21.228;2022-12-18T05:15:57;101989.86;;;-5.94;84.84
36254;BME280;22291;52.250;21.228;2022-12-18T05:18:24;101997.28;;;-5.98;84.85
36254;BME280;22291;52.250;21.228;2022-12-18T05:20:52;102004.72;;;-5.97;84.76
36254;BME280;22291;52.250;21.228;2022-12-18T05:23:20;101998.76;;;-5.99;84.72
36254;BME280;22291;52.250;21.228;2022-12-18T05:25:57;102008.48;;;-6.00;84.67
36254;BME280;22291;52.250;21.228;2022-12-18T05:28:27;102009.95;;;-6.02;84.59
36254;BME280;22291;52.250;21.228;2022-12-18T05:30:58;102014.91;;;-6.03;84.62
36254;BME280;22291;52.250;21.228;2022-12-18T05:33:28;102013.74;;;-6.04;84.60
36254;BME280;22291;52.250;21.228;2022-12-18T05:36:01;102024.44;;;-6.06;84.62
36254;BME280;22291;52.250;21.228;2022-12-18T05:38:29;102029.86;;;-6.07;84.61
36254;BME280;22291;52.250;21.228;2022-12-18T05:40:57;102030.36;;;-6.08;84.62
36254;BME280;22291;52.250;21.228;2022-12-18T05:43:25;102033.81;;;-6.07;84.76
36254;BME280;22291;52.250;21.228;2022-12-18T05:45:53;102043.34;;;-6.06;84.79
36254;BME280;22291;52.250;21.228;2022-12-18T05:48:21;102038.43;;;-6.05;84.80
36254;BME280;22291;52.250;21.228;2022-12-18T05:50:49;102035.80;;;-6.05;84.80
36254;BME280;22291;52.250;21.228;2022-12-18T05:53:19;102043.70;;;-6.05;84.79
36254;BME280;22291;52.250;21.228;2022-12-18T05:55:47;102048.47;;;-6.05;84.75
36254;BME280;22291;52.250;21.228;2022-12-18T05:58:15;102049.31;;;-6.04;84.79
36254;BME280;22291;52.250;21.228;2022-12-18T06:00:44;102057.06;;;-6.03;84.71
36254;BME280;22291;52.250;21.228;2022-12-18T06:03:13;102062.64;;;-6.06;84.61
36254;BME280;22291;52.250;21.228;2022-12-18T06:05:42;102072.33;;;-6.06;84.61
36254;BME280;22291;52.250;21.228;2022-12-18T06:08:11;102069.38;;;-6.07;84.71
36254;BME280;22291;52.250;21.228;2022-12-18T06:10:39;102068.88;;;-6.07;84.76
36254;BME280;22291;52.250;21.228;2022-12-18T06:13:06;102074.50;;;-6.06;84.64
36254;BME280;22291;52.250;21.228;2022-12-18T06:15:38;102079.42;;;-6.07;84.67
36254;BME280;22291;52.250;21.228;2022-12-18T06:18:05;102077.60;;;-6.06;84.67
36254;BME280;22291;52.250;21.228;2022-12-18T06:20:31;102087.33;;;-6.07;84.62
36254;BME280;22291;52.250;21.228;2022-12-18T06:22:57;102084.84;;;-6.08;84.44
36254;BME280;22291;52.250;21.228;2022-12-18T06:25:24;102091.58;;;-6.10;84.31
36254;BME280;22291;52.250;21.228;2022-12-18T06:27:50;102085.49;;;-6.10;84.29
36254;BME280;22291;52.250;21.228;2022-12-18T06:30:17;102094.87;;;-6.12;84.33
36254;BME280;22291;52.250;21.228;2022-12-18T06:32:43;102099.81;;;-6.13;84.35
36254;BME280;22291;52.250;21.228;2022-12-18T06:35:10;102105.41;;;-6.12;84.43
36254;BME280;22291;52.250;21.228;2022-12-18T06:37:36;102105.55;;;-6.13;84.43
36254;BME280;22291;52.250;21.228;2022-12-18T06:40:04;102111.67;;;-6.13;84.37
36254;BME280;22291;52.250;21.228;2022-12-18T06:42:31;102122.21;;;-6.13;84.46
36254;BME280;22291;52.250;21.228;2022-12-18T06:44:58;102122.68;;;-6.13;84.49
36254;BME280;22291;52.250;21.228;2022-12-18T06:47:24;102130.43;;;-6.12;84.48
36254;BME280;22291;52.250;21.228;2022-12-18T06:49:50;102142.79;;;-6.12;84.43
36254;BME280;22291;52.250;21.228;2022-12-18T06:52:17;102148.06;;;-6.12;84.40
36254;BME280;22291;52.250;21.228;2022-12-18T06:54:43;102146.54;;;-6.15;84.43
36254;BME280;22291;52.250;21.228;2022-12-18T06:57:09;102147.70;;;-6.13;84.44
36254;BME280;22291;52.250;21.228;2022-12-18T06:59:36;102149.88;;;-6.13;84.49
36254;BME280;22291;52.250;21.228;2022-12-18T07:02:02;102155.61;;;-6.13;84.54
36254;BME280;22291;52.250;21.228;2022-12-18T07:04:29;102147.70;;;-6.13;84.50
36254;BME280;22291;52.250;21.228;2022-12-18T07:06:56;102165.19;;;-6.12;84.54
36254;BME280;22291;52.250;21.228;2022-12-18T07:09:23;102167.61;;;-6.15;84.54
36254;BME280;22291;52.250;21.228;2022-12-18T07:11:50;102170.45;;;-6.12;84.59
36254;BME280;22291;52.250;21.228;2022-12-18T07:14:16;102182.16;;;-6.11;84.67
36254;BME280;22291;52.250;21.228;2022-12-18T07:16:42;102176.89;;;-6.11;84.66
36254;BME280;22291;52.250;21.228;2022-12-18T07:19:09;102187.75;;;-6.10;84.65
36254;BME280;22291;52.250;21.228;2022-12-18T07:21:35;102189.56;;;-6.10;84.51
36254;BME280;22291;52.250;21.228;2022-12-18T07:24:02;102198.94;;;-6.12;84.37
36254;BME280;22291;52.250;21.228;2022-12-18T07:26:29;102206.17;;;-6.14;84.33
36254;BME280;22291;52.250;21.228;2022-12-18T07:28:57;102205.81;;;-6.15;84.51
36254;BME280;22291;52.250;21.228;2022-12-18T07:31:24;102208.80;;;-6.14;84.57
36254;BME280;22291;52.250;21.228;2022-12-18T07:33:52;102207.34;;;-6.12;84.64
36254;BME280;22291;52.250;21.228;2022-12-18T07:36:22;102214.59;;;-6.10;84.76
36254;BME280;22291;52.250;21.228;2022-12-18T07:38:50;102218.39;;;-6.09;84.90
36254;BME280;22291;52.250;21.228;2022-12-18T07:41:18;102214.80;;;-6.08;85.13
36254;BME280;22291;52.250;21.228;2022-12-18T07:43:46;102216.16;;;-5.99;85.25
36254;BME280;22291;52.250;21.228;2022-12-18T07:46:14;102217.81;;;-5.94;85.32
36254;BME280;22291;52.250;21.228;2022-12-18T07:48:42;102212.74;;;-5.92;85.16
36254;BME280;22291;52.250;21.228;2022-12-18T07:51:10;102214.73;;;-5.90;85.09
36254;BME280;22291;52.250;21.228;2022-12-18T07:53:38;102225.30;;;-5.86;85.30
36254;BME280;22291;52.250;21.228;2022-12-18T07:56:09;102231.78;;;-5.80;85.39
36254;BME280;22291;52.250;21.228;2022-12-18T07:58:38;102233.12;;;-5.76;85.28
36254;BME280;22291;52.250;21.228;2022-12-18T08:01:08;102231.15;;;-5.74;85.27
36254;BME280;22291;52.250;21.228;2022-12-18T08:03:38;102237.59;;;-5.72;84.97
36254;BME280;22291;52.250;21.228;2022-12-18T08:06:08;102241.22;;;-5.73;84.78
36254;BME280;22291;52.250;21.228;2022-12-18T08:08:35;102253.92;;;-5.69;84.96
36254;BME280;22291;52.250;21.228;2022-12-18T08:11:03;102266.81;;;-5.66;84.96
36254;BME280;22291;52.250;21.228;2022-12-18T08:13:32;102269.95;;;-5.66;84.75
36254;BME280;22291;52.250;21.228;2022-12-18T08:16:01;102264.37;;;-5.63;84.77
36254;BME280;22291;52.250;21.228;2022-12-18T08:18:32;102263.72;;;-5.61;84.97
36254;BME280;22291;52.250;21.228;2022-12-18T08:21:10;102258.62;;;-5.58;85.00
36254;BME280;22291;52.250;21.228;2022-12-18T08:23:39;102267.08;;;-5.55;84.92
36254;BME280;22291;52.250;21.228;2022-12-18T08:26:06;102262.64;;;-5.50;84.98
36254;BME280;22291;52.250;21.228;2022-12-18T08:28:34;102269.08;;;-5.49;84.91
36254;BME280;22291;52.250;21.228;2022-12-18T08:31:03;102269.12;;;-5.45;84.96
36254;BME280;22291;52.250;21.228;2022-12-18T08:33:31;102273.45;;;-5.39;85.17
36254;BME280;22291;52.250;21.228;2022-12-18T08:35:59;102274.28;;;-5.35;85.42
36254;BME280;22291;52.250;21.228;2022-12-18T08:38:29;102282.05;;;-5.33;85.03
36254;BME280;22291;52.250;21.228;2022-12-18T08:41:04;102292.30;;;-5.30;84.78
36254;BME280;22291;52.250;21.228;2022-12-18T08:43:34;102296.09;;;-5.29;84.68
36254;BME280;22291;52.250;21.228;2022-12-18T08:46:21;102299.23;;;-5.29;84.49
36254;BME280;22291;52.250;21.228;2022-12-18T08:48:55;102298.88;;;-5.34;84.12
36254;BME280;22291;52.250;21.228;2022-12-18T08:51:23;102300.34;;;-5.36;84.30
36254;BME280;22291;52.250;21.228;2022-12-18T08:53:50;102306.94;;;-5.36;84.56
36254;BME280;22291;52.250;21.228;2022-12-18T08:56:16;102313.85;;;-5.35;84.63
36254;BME280;22291;52.250;21.228;2022-12-18T08:58:44;102322.11;;;-5.34;84.70
36254;BME280;22291;52.250;21.228;2022-12-18T09:01:13;102318.33;;;-5.31;84.96
36254;BME280;22291;52.250;21.228;2022-12-18T09:03:41;102319.34;;;-5.28;85.08
36254;BME280;22291;52.250;21.228;2022-12-18T09:06:08;102316.40;;;-5.25;84.99
36254;BME280;22291;52.250;21.228;2022-12-18T09:08:36;102314.94;;;-5.23;85.13
36254;BME280;22291;52.250;21.228;2022-12-18T09:11:02;102318.59;;;-5.20;85.09
36254;BME280;22291;52.250;21.228;2022-12-18T09:13:32;102330.00;;;-5.16;85.20
36254;BME280;22291;52.250;21.228;2022-12-18T09:16:03;102329.82;;;-5.14;85.02
36254;BME280;22291;52.250;21.228;2022-12-18T09:18:29;102323.27;;;-5.10;85.31
36254;BME280;22291;52.250;21.228;2022-12-18T09:20:56;102325.45;;;-5.05;85.45
36254;BME280;22291;52.250;21.228;2022-12-18T09:23:24;102328.77;;;-4.99;85.68
36254;BME280;22291;52.250;21.228;2022-12-18T09:25:50;102328.66;;;-4.94;85.53
36254;BME280;22291;52.250;21.228;2022-12-18T09:28:20;102328.83;;;-4.87;85.93
36254;BME280;22291;52.250;21.228;2022-12-18T09:30:49;102326.25;;;-4.79;85.91
36254;BME280;22291;52.250;21.228;2022-12-18T09:33:18;102330.75;;;-4.71;85.62
36254;BME280;22291;52.250;21.228;2022-12-18T09:35:46;102329.23;;;-4.74;85.11
36254;BME280;22291;52.250;21.228;2022-12-18T09:38:15;102322.99;;;-4.69;85.50
36254;BME280;22291;52.250;21.228;2022-12-18T09:40:49;102335.89;;;-4.65;85.10
36254;BME280;22291;52.250;21.228;2022-12-18T09:43:22;102335.89;;;-4.65;85.23
36254;BME280;22291;52.250;21.228;2022-12-18T09:45:56;102332.95;;;-4.58;85.49
36254;BME280;22291;52.250;21.228;2022-12-18T09:48:27;102329.33;;;-4.61;84.71
36254;BME280;22291;52.250;21.228;2022-12-18T09:50:58;102333.44;;;-4.63;85.08
36254;BME280;22291;52.250;21.228;2022-12-18T09:53:30;102332.63;;;-4.59;85.18
36254;BME280;22291;52.250;21.228;2022-12-18T09:55:57;102334.30;;;-4.54;85.70
36254;BME280;22291;52.250;21.228;2022-12-18T09:58:41;102336.13;;;-4.46;85.74
36254;BME280;22291;52.250;21.228;2022-12-18T10:01:20;102343.28;;;-4.39;85.83
36254;BME280;22291;52.250;21.228;2022-12-18T10:03:42;102346.23;;;-4.38;85.20
36254;BME280;22291;52.250;21.228;2022-12-18T10:06:15;102347.05;;;-4.41;84.88
36254;BME280;22291;52.250;21.228;2022-12-18T10:08:54;102348.09;;;-4.34;85.66
36254;BME280;22291;52.250;21.228;2022-12-18T10:17:30;102342.34;;;-4.17;85.30
36254;BME280;22291;52.250;21.228;2022-12-18T10:20:20;102331.64;;;-4.11;85.52
36254;BME280;22291;52.250;21.228;2022-12-18T10:26:04;102337.12;;;-3.92;85.67
36254;BME280;22291;52.250;21.228;2022-12-18T10:28:37;102343.90;;;-3.94;84.90
36254;BME280;22291;52.250;21.228;2022-12-18T10:31:18;102357.78;;;-3.96;84.38
36254;BME280;22291;52.250;21.228;2022-12-18T10:33:46;102355.11;;;-4.00;84.36
36254;BME280;22291;52.250;21.228;2022-12-18T10:36:14;102361.59;;;-3.95;85.00
36254;BME280;22291;52.250;21.228;2022-12-18T10:38:41;102359.78;;;-3.86;85.57
36254;BME280;22291;52.250;21.228;2022-12-18T10:44:17;102355.35;;;-3.69;85.63
36254;BME280;22291;52.250;21.228;2022-12-18T10:46:46;102361.47;;;-3.60;85.18
36254;BME280;22291;52.250;21.228;2022-12-18T10:49:31;102358.98;;;-3.58;84.32
36254;BME280;22291;52.250;21.228;2022-12-18T10:54:39;102349.56;;;-3.48;85.21
36254;BME280;22291;52.250;21.228;2022-12-18T10:57:27;102359.84;;;-3.36;85.35
36254;BME280;22291;52.250;21.228;2022-12-18T10:59:57;102366.77;;;-3.27;85.35
36254;BME280;22291;52.250;21.228;2022-12-18T11:02:34;102360.98;;;-3.23;84.75
36254;BME280;22291;52.250;21.228;2022-12-18T11:05:03;102362.48;;;-3.20;84.46
36254;BME280;22291;52.250;21.228;2022-12-18T11:07:51;102357.69;;;-3.16;84.39
36254;BME280;22291;52.250;21.228;2022-12-18T11:10:20;102359.16;;;-3.10;84.35
36254;BME280;22291;52.250;21.228;2022-12-18T11:12:48;102358.16;;;-3.05;84.35
36254;BME280;22291;52.250;21.228;2022-12-18T11:15:23;102363.12;;;-2.97;84.44
36254;BME280;22291;52.250;21.228;2022-12-18T11:17:49;102365.75;;;-2.93;84.33
36254;BME280;22291;52.250;21.228;2022-12-18T11:23:03;102370.89;;;-2.88;83.87
36254;BME280;22291;52.250;21.228;2022-12-18T11:25:33;102377.31;;;-2.86;83.62
36254;BME280;22291;52.250;21.228;2022-12-18T11:31:14;102381.78;;;-2.78;83.49
36254;BME280;22291;52.250;21.228;2022-12-18T11:36:36;102374.02;;;-2.84;82.47
36254;BME280;22291;52.250;21.228;2022-12-18T11:39:24;102375.33;;;-2.80;82.90
36254;BME280;22291;52.250;21.228;2022-12-18T11:44:48;102371.67;;;-2.75;82.88
36254;BME280;22291;52.250;21.228;2022-12-18T11:50:21;102373.17;;;-2.72;82.79
36254;BME280;22291;52.250;21.228;2022-12-18T11:52:53;102375.13;;;-2.66;82.81
36254;BME280;22291;52.250;21.228;2022-12-18T12:01:40;102372.81;;;-2.65;82.09
36254;BME280;22291;52.250;21.228;2022-12-18T12:07:29;102378.79;;;-2.79;81.69
36254;BME280;22291;52.250;21.228;2022-12-18T12:10:16;102383.11;;;-2.78;81.92
36254;BME280;22291;52.250;21.228;2022-12-18T12:13:00;102394.87;;;-2.85;81.60
36254;BME280;22291;52.250;21.228;2022-12-18T12:18:39;102388.59;;;-2.84;81.77
36254;BME280;22291;52.250;21.228;2022-12-18T12:21:35;102395.36;;;-2.90;81.59
36254;BME280;22291;52.250;21.228;2022-12-18T12:24:21;102400.19;;;-2.89;81.73
36254;BME280;22291;52.250;21.228;2022-12-18T12:38:28;102400.02;;;-3.21;81.35
36254;BME280;22291;52.250;21.228;2022-12-18T12:41:08;102405.00;;;-3.22;81.29
36254;BME280;22291;52.250;21.228;2022-12-18T12:43:42;102404.34;;;-3.20;81.66
36254;BME280;22291;52.250;21.228;2022-12-18T12:46:12;102400.34;;;-3.24;81.45
36254;BME280;22291;52.250;21.228;2022-12-18T12:48:44;102414.58;;;-3.21;81.74
36254;BME280;22291;52.250;21.228;2022-12-18T12:51:34;102436.08;;;-3.24;81.21
36254;BME280;22291;52.250;21.228;2022-12-18T12:54:09;102435.09;;;-3.35;80.93
36254;BME280;22291;52.250;21.228;2022-12-18T12:59:52;102438.55;;;-3.43;81.17
36254;BME280;22291;52.250;21.228;2022-12-18T13:05:33;102430.93;;;-3.46;81.32
36254;BME280;22291;52.250;21.228;2022-12-18T13:08:11;102431.94;;;-3.47;81.59
36254;BME280;22291;52.250;21.228;2022-12-18T13:10:42;102447.50;;;-3.44;81.74
36254;BME280;22291;52.250;21.228;2022-12-18T13:13:12;102438.89;;;-3.42;81.39
36254;BME280;22291;52.250;21.228;2022-12-18T13:15:45;102444.35;;;-3.47;81.19
36254;BME280;22291;52.250;21.228;2022-12-18T13:18:22;102455.56;;;-3.49;81.10
36254;BME280;22291;52.250;21.228;2022-12-18T13:23:31;102470.59;;;-3.58;80.86
36254;BME280;22291;52.250;21.228;2022-12-18T13:34:19;102469.69;;;-3.87;81.28
36254;BME280;22291;52.250;21.228;2022-12-18T13:36:50;102473.30;;;-3.88;81.52
36254;BME280;22291;52.250;21.228;2022-12-18T13:39:22;102476.45;;;-3.93;81.43
36254;BME280;22291;52.250;21.228;2022-12-18T13:44:41;102485.82;;;-3.99;81.58
36254;BME280;22291;52.250;21.228;2022-12-18T13:47:37;102484.30;;;-4.05;81.55
36254;BME280;22291;52.250;21.228;2022-12-18T13:50:03;102472.39;;;-4.14;81.55
36254;BME280;22291;52.250;21.228;2022-12-18T13:52:39;102478.96;;;-4.18;81.76
36254;BME280;22291;52.250;21.228;2022-12-18T13:55:16;102482.91;;;-4.22;81.94
36254;BME280;22291;52.250;21.228;2022-12-18T13:57:46;102479.77;;;-4.21;82.14
36254;BME280;22291;52.250;21.228;2022-12-18T14:02:53;102473.66;;;-4.22;82.36
36254;BME280;22291;52.250;21.228;2022-12-18T14:05:28;102475.45;;;-4.22;82.41
36254;BME280;22291;52.250;21.228;2022-12-18T14:08:01;102489.17;;;-4.23;82.34
36254;BME280;22291;52.250;21.228;2022-12-18T14:10:34;102501.72;;;-4.25;82.40
36254;BME280;22291;52.250;21.228;2022-12-18T14:13:07;102500.55;;;-4.26;82.35
36254;BME280;22291;52.250;21.228;2022-12-18T14:20:59;102507.00;;;-4.29;82.64
36254;BME280;22291;52.250;21.228;2022-12-18T14:26:23;102499.07;;;-4.29;82.73
36254;BME280;22291;52.250;21.228;2022-12-18T14:29:17;102507.47;;;-4.29;82.61
36254;BME280;22291;52.250;21.228;2022-12-18T14:31:30;102510.09;;;-4.34;82.75
36254;BME280;22291;52.250;21.228;2022-12-18T14:33:58;102510.75;;;-4.36;82.79
36254;BME280;22291;52.250;21.228;2022-12-18T14:36:28;102511.72;;;-4.37;82.90
36254;BME280;22291;52.250;21.228;2022-12-18T14:38:58;102510.20;;;-4.39;82.96